Time;durP1;ratioP1;P1;durP2;ratioP2;P2;SDS_P1;SDS_P2;PMS_P1;PMS_P2;Temp;Humidity;BMP_temperature;BMP_pressure;BME280_temperature;BME280_humidity;BME280_pressure;Samples;Min_cycle;Max_cycle;Signal;HPM_P1;HPM_P2
2021/06/26 00:00:07;;;;;;;9.30;2.17;;;15.80;99.90;;;;;;5053545;28;20021;-79
2021/06/26 00:02:33;;;;;;;5.43;2.05;;;15.80;99.90;;;;;;5053666;28;20158;-83
2021/06/26 00:04:58;;;;;;;5.88;2.13;;;15.70;99.90;;;;;;5053552;28;20108;-76
2021/06/26 00:07:24;;;;;;;3.20;1.60;;;15.70;99.90;;;;;;5053742;28;20048;-79
2021/06/26 00:09:49;;;;;;;5.35;1.77;;;15.70;99.90;;;;;;5052284;28;20437;-79
2021/06/26 00:12:15;;;;;;;6.15;2.08;;;15.80;99.90;;;;;;5052014;28;20036;-80
2021/06/26 00:14:41;;;;;;;7.47;1.80;;;15.80;99.90;;;;;;5052006;28;20045;-79
2021/06/26 00:17:07;;;;;;;6.15;1.70;;;15.70;99.90;;;;;;5052046;28;20025;-84
2021/06/26 00:19:32;;;;;;;4.97;1.67;;;15.70;99.90;;;;;;5053386;28;20476;-80
2021/06/26 00:21:58;;;;;;;2.17;1.85;;;15.60;99.90;;;;;;5052011;28;20029;-80
2021/06/26 00:24:24;;;;;;;5.25;2.20;;;15.60;99.90;;;;;;5053388;28;20080;-80
2021/06/26 00:26:50;;;;;;;4.13;1.90;;;15.60;99.90;;;;;;5053214;28;20036;-83
2021/06/26 00:29:16;;;;;;;5.10;2.17;;;15.60;99.90;;;;;;5052912;28;20096;-79
2021/06/26 00:31:42;;;;;;;4.38;2.05;;;15.70;99.90;;;;;;5053237;28;20017;-78
2021/06/26 00:34:08;;;;;;;5.22;1.23;;;15.70;99.90;;;;;;5051688;28;20411;-80
2021/06/26 00:36:33;;;;;;;2.33;1.08;;;15.70;99.90;;;;;;5051551;28;20028;-79
2021/06/26 00:38:59;;;;;;;1.63;1.00;;;15.70;99.90;;;;;;5052705;28;20029;-78
2021/06/26 00:41:25;;;;;;;4.22;1.35;;;15.60;99.90;;;;;;5051289;28;20421;-82
2021/06/26 00:43:50;;;;;;;1.60;1.20;;;15.60;99.90;;;;;;5052018;28;20405;-80
2021/06/26 00:46:16;;;;;;;3.58;1.50;;;15.50;99.90;;;;;;5052726;28;20039;-79
2021/06/26 00:48:41;;;;;;;2.08;1.23;;;15.40;99.90;;;;;;5051448;28;20510;-78
2021/06/26 00:51:07;;;;;;;2.45;1.50;;;15.30;99.90;;;;;;5052590;28;20051;-79
2021/06/26 00:53:33;;;;;;;3.22;1.38;;;15.30;99.90;;;;;;5052758;28;20017;-79
2021/06/26 00:56:01;;;;;;;5.45;1.30;;;15.20;99.90;;;;;;5051707;28;20025;-83
2021/06/26 00:58:27;;;;;;;4.75;1.52;;;15.10;99.90;;;;;;5053068;28;20029;-80
2021/06/26 01:00:53;;;;;;;3.75;1.38;;;15.20;99.90;;;;;;5052731;28;20098;-86
2021/06/26 01:03:20;;;;;;;5.43;1.70;;;15.20;99.90;;;;;;5052933;28;20029;-84
2021/06/26 01:05:45;;;;;;;4.13;1.70;;;15.20;99.90;;;;;;5052642;28;20043;-76
2021/06/26 01:08:11;;;;;;;4.70;1.60;;;15.10;99.90;;;;;;5051040;28;20538;-77
2021/06/26 01:10:37;;;;;;;1.73;1.30;;;15.10;99.90;;;;;;5051183;28;20115;-79
2021/06/26 01:13:04;;;;;;;5.25;1.48;;;15.00;99.90;;;;;;5052558;28;20132;-79
2021/06/26 01:15:30;;;;;;;3.50;1.63;;;14.90;99.90;;;;;;5052599;28;20025;-79
2021/06/26 01:17:55;;;;;;;5.15;1.40;;;14.90;99.90;;;;;;5052674;28;20028;-85
2021/06/26 01:20:21;;;;;;;2.05;1.55;;;15.00;99.90;;;;;;5052475;28;20025;-80
2021/06/26 01:22:51;;;;;;;2.65;1.50;;;14.90;99.90;;;;;;5052446;28;20052;-79
2021/06/26 01:25:22;;;;;;;4.10;1.60;;;14.90;99.90;;;;;;5051047;28;20028;-80
2021/06/26 01:27:48;;;;;;;3.03;1.63;;;14.90;99.90;;;;;;5051083;28;20440;-82
2021/06/26 01:30:17;;;;;;;4.32;1.80;;;14.90;99.90;;;;;;5052415;28;20025;-78
2021/06/26 01:32:42;;;;;;;4.03;1.58;;;15.00;99.90;;;;;;5052587;28;20078;-81
2021/06/26 01:35:09;;;;;;;5.63;1.95;;;15.00;99.90;;;;;;5051432;28;20028;-83
2021/06/26 01:37:39;;;;;;;2.05;1.52;;;15.00;99.90;;;;;;5051401;28;20505;-77
2021/06/26 01:40:07;;;;;;;3.72;1.90;;;15.10;99.90;;;;;;5052435;28;20020;-78
2021/06/26 01:42:33;;;;;;;6.55;1.80;;;15.10;99.90;;;;;;5050957;28;20117;-79
2021/06/26 01:44:58;;;;;;;2.47;1.42;;;15.10;99.90;;;;;;5052249;28;20126;-79
2021/06/26 01:47:24;;;;;;;1.95;1.77;;;15.10;99.90;;;;;;5051931;28;20029;-83
2021/06/26 01:49:50;;;;;;;7.60;2.03;;;15.10;99.90;;;;;;5052350;28;20037;-79
2021/06/26 01:52:15;;;;;;;5.15;1.90;;;15.10;99.90;;;;;;5050594;28;20028;-79
2021/06/26 01:54:41;;;;;;;3.58;1.77;;;15.00;99.90;;;;;;5050948;28;20392;-79
2021/06/26 01:57:08;;;;;;;2.95;1.60;;;14.90;99.90;;;;;;5050884;28;20023;-78
2021/06/26 01:59:34;;;;;;;3.05;1.45;;;14.90;99.90;;;;;;5050916;28;20029;-79
2021/06/26 02:02:01;;;;;;;2.40;1.08;;;14.90;99.90;;;;;;5052163;28;20139;-79
2021/06/26 02:04:27;;;;;;;1.65;1.10;;;14.90;99.90;;;;;;5050963;28;20029;-79
2021/06/26 02:06:52;;;;;;;3.42;1.10;;;14.90;99.90;;;;;;5050559;28;20017;-78
2021/06/26 02:09:18;;;;;;;4.65;1.65;;;14.90;99.90;;;;;;5051913;28;20104;-78
2021/06/26 02:11:43;;;;;;;3.08;1.58;;;14.90;99.90;;;;;;5052830;28;20014;-79
2021/06/26 02:14:09;;;;;;;3.25;1.63;;;14.90;99.90;;;;;;5054199;28;20051;-81
2021/06/26 02:16:35;;;;;;;2.67;1.90;;;14.90;99.90;;;;;;5054514;28;20017;-86
2021/06/26 02:19:00;;;;;;;3.72;1.55;;;14.80;99.90;;;;;;5055882;28;20048;-85
2021/06/26 02:21:26;;;;;;;2.85;1.35;;;14.80;99.90;;;;;;5055885;28;20515;-85
2021/06/26 02:23:51;;;;;;;3.45;1.45;;;14.70;99.90;;;;;;5056092;28;20017;-79
2021/06/26 02:26:17;;;;;;;2.17;1.17;;;14.70;99.90;;;;;;5055794;28;20110;-85
2021/06/26 02:28:43;;;;;;;2.47;1.35;;;14.70;99.90;;;;;;5053785;28;20488;-79
2021/06/26 02:31:08;;;;;;;4.25;1.38;;;14.60;99.90;;;;;;5053962;28;20119;-80
2021/06/26 02:33:34;;;;;;;4.32;1.50;;;14.70;99.90;;;;;;5054461;28;20036;-85
2021/06/26 02:36:00;;;;;;;4.63;1.80;;;14.70;99.90;;;;;;5055323;28;20460;-78
2021/06/26 02:38:25;;;;;;;2.75;1.38;;;14.70;99.90;;;;;;5055189;28;20025;-79
2021/06/26 02:40:51;;;;;;;4.22;2.50;;;14.60;99.90;;;;;;5055144;28;20083;-79
2021/06/26 02:43:19;;;;;;;3.60;1.80;;;14.70;99.90;;;;;;5054162;28;20031;-79
2021/06/26 02:45:46;;;;;;;3.78;1.50;;;14.60;99.90;;;;;;5053889;28;20029;-80
2021/06/26 02:48:12;;;;;;;2.45;1.60;;;14.60;99.90;;;;;;5055184;28;20499;-79
2021/06/26 02:50:38;;;;;;;2.40;1.55;;;14.60;99.90;;;;;;5054521;28;20062;-79
2021/06/26 02:53:03;;;;;;;3.72;1.75;;;14.50;99.90;;;;;;5054731;28;20025;-79
2021/06/26 02:55:29;;;;;;;2.30;1.50;;;14.50;99.90;;;;;;5055107;28;20017;-82
2021/06/26 02:57:55;;;;;;;3.38;1.52;;;14.50;99.90;;;;;;5054831;28;20029;-84
2021/06/26 03:00:21;;;;;;;3.85;1.70;;;14.40;99.90;;;;;;5053665;28;20021;-79
2021/06/26 03:02:46;;;;;;;2.35;1.35;;;14.40;99.90;;;;;;5054932;28;20052;-79
2021/06/26 03:05:12;;;;;;;4.20;1.27;;;14.50;99.90;;;;;;5055302;28;20052;-85
2021/06/26 03:07:38;;;;;;;4.97;2.17;;;14.40;99.90;;;;;;5053141;28;20700;-80
2021/06/26 03:10:04;;;;;;;3.70;1.40;;;14.50;99.90;;;;;;5052762;28;20025;-80
2021/06/26 03:12:29;;;;;;;6.43;1.00;;;14.60;99.90;;;;;;5053284;28;20033;-82
2021/06/26 03:14:55;;;;;;;4.65;0.80;;;14.60;99.90;;;;;;5054582;28;20037;-78
2021/06/26 03:17:21;;;;;;;1.50;1.08;;;14.60;99.90;;;;;;5054304;28;20037;-78
2021/06/26 03:19:48;;;;;;;2.38;0.85;;;16.30;99.90;;;;;;5057420;28;20032;-84
2021/06/26 03:22:13;;;;;;;1.15;0.60;;;17.60;99.90;;;;;;5053933;28;20032;-84
2021/06/26 03:24:39;;;;;;;1.35;0.52;;;19.30;99.90;;;;;;5054377;28;20021;-84
2021/06/26 03:27:05;;;;;;;1.52;0.55;;;19.40;99.90;;;;;;5054630;28;20028;-85
2021/06/26 03:29:30;;;;;;;2.35;0.40;;;19.50;99.90;;;;;;5054677;28;20032;-83
2021/06/26 03:31:56;;;;;;;4.05;0.68;;;20.30;99.90;;;;;;5054435;28;20017;-83
2021/06/26 03:34:22;;;;;;;2.47;0.73;;;20.70;99.90;;;;;;5059092;28;20040;-85
2021/06/26 03:36:47;;;;;;;6.82;1.10;;;20.40;99.90;;;;;;5054578;28;20025;-83
2021/06/26 03:39:13;;;;;;;3.58;0.73;;;20.30;99.90;;;;;;5054613;28;20464;-83
2021/06/26 03:41:38;;;;;;;1.58;0.60;;;20.00;99.90;;;;;;5054485;28;20017;-84
2021/06/26 03:44:04;;;;;;;2.10;0.50;;;19.60;99.90;;;;;;5054498;28;20024;-83
2021/06/26 03:46:30;;;;;;;1.15;0.50;;;18.90;99.90;;;;;;5055628;28;20063;-83
2021/06/26 03:48:56;;;;;;;1.98;0.70;;;18.90;99.90;;;;;;5055666;28;20033;-84
2021/06/26 03:51:22;;;;;;;2.63;0.70;;;18.70;99.90;;;;;;5054428;28;20032;-85
2021/06/26 03:53:49;;;;;;;0.95;0.60;;;18.40;99.90;;;;;;5054193;28;20075;-85
2021/06/26 03:56:15;;;;;;;1.80;0.90;;;18.30;99.90;;;;;;5054574;28;20025;-91
2021/06/26 03:58:41;;;;;;;1.33;0.85;;;18.00;99.90;;;;;;5054260;28;20025;-89
2021/06/26 04:01:07;;;;;;;2.50;1.00;;;18.50;99.90;;;;;;5054147;28;20028;-89
2021/06/26 04:03:32;;;;;;;7.53;1.77;;;19.20;99.90;;;;;;5054079;28;20021;-90
2021/06/26 04:05:58;;;;;;;6.15;1.38;;;19.00;99.90;;;;;;5053867;28;20021;-91
2021/06/26 04:08:24;;;;;;;3.72;1.70;;;18.40;99.90;;;;;;5053942;28;20503;-89
2021/06/26 04:10:49;;;;;;;9.60;5.30;;;18.30;99.90;;;;;;5053874;28;20025;-82
2021/06/26 04:13:15;;;;;;;4.65;3.08;;;18.50;99.90;;;;;;5053651;28;20053;-89
2021/06/26 04:15:41;;;;;;;3.80;1.90;;;18.20;99.90;;;;;;5054015;28;20116;-85
2021/06/26 04:18:06;;;;;;;6.47;2.95;;;18.10;99.90;;;;;;5053837;28;20051;-90
2021/06/26 04:20:32;;;;;;;2.17;1.88;;;17.60;99.90;;;;;;5053899;28;20488;-86
2021/06/26 04:22:58;;;;;;;3.67;1.42;;;17.60;99.90;;;;;;5058902;28;20048;-86
2021/06/26 04:25:24;;;;;;;4.43;1.20;;;17.80;99.90;;;;;;5053606;28;20025;-83
2021/06/26 04:27:50;;;;;;;1.48;1.00;;;18.00;99.90;;;;;;5053827;28;20484;-89
2021/06/26 04:30:16;;;;;;;3.22;1.23;;;18.10;99.90;;;;;;5053757;28;20021;-90
2021/06/26 04:32:42;;;;;;;3.92;1.80;;;18.60;99.90;;;;;;5053847;28;20506;-85
2021/06/26 04:35:10;;;;;;;5.75;1.70;;;18.40;99.90;;;;;;5054191;28;20087;-89
2021/06/26 04:37:37;;;;;;;2.00;1.00;;;18.80;99.90;;;;;;5053329;28;20052;-90
2021/06/26 04:40:05;;;;;;;3.30;1.50;;;18.80;99.90;;;;;;5053099;28;20020;-91
2021/06/26 04:42:30;;;;;;;2.55;1.42;;;19.00;99.90;;;;;;5053397;28;20192;-86
2021/06/26 04:44:57;;;;;;;1.45;1.00;;;19.20;99.90;;;;;;5053436;28;20198;-90
2021/06/26 04:47:24;;;;;;;7.45;2.45;;;19.10;99.90;;;;;;5053186;28;20032;-91
2021/06/26 04:49:50;;;;;;;4.20;2.42;;;19.40;99.90;;;;;;5053226;28;20021;-85
2021/06/26 04:52:16;;;;;;;1.48;1.15;;;19.70;99.90;;;;;;5053348;28;20040;-83
2021/06/26 04:54:41;;;;;;;2.15;1.80;;;20.30;99.90;;;;;;5054457;28;20098;-90
2021/06/26 04:57:07;;;;;;;7.57;2.00;;;20.20;99.90;;;;;;5053280;28;20071;-87
2021/06/26 04:59:33;;;;;;;2.70;1.80;;;20.20;99.90;;;;;;5053240;28;20132;-88
2021/06/26 05:01:59;;;;;;;3.95;1.75;;;20.60;99.90;;;;;;5052978;28;20047;-81
2021/06/26 05:04:25;;;;;;;1.98;1.15;;;20.60;99.90;;;;;;5053195;28;20025;-89
2021/06/26 05:06:50;;;;;;;1.92;0.93;;;20.80;99.90;;;;;;5052945;28;20025;-84
2021/06/26 05:09:16;;;;;;;2.30;0.90;;;20.80;99.90;;;;;;5053042;28;20102;-82
2021/06/26 05:11:42;;;;;;;1.83;1.27;;;21.40;99.90;;;;;;5053597;28;20022;-78
2021/06/26 05:14:09;;;;;;;4.13;1.40;;;21.60;99.90;;;;;;5052358;28;20492;-78
2021/06/26 05:16:34;;;;;;;3.55;1.70;;;21.50;99.90;;;;;;5052391;28;20483;-79
2021/06/26 05:19:00;;;;;;;5.45;1.50;;;21.60;99.90;;;;;;5052545;28;20021;-80
2021/06/26 05:21:26;;;;;;;5.28;1.50;;;21.30;99.90;;;;;;5052624;28;20021;-79
2021/06/26 05:23:52;;;;;;;2.83;1.45;;;20.90;99.90;;;;;;5053750;28;20116;-79
2021/06/26 05:26:17;;;;;;;2.60;1.50;;;20.70;99.90;;;;;;5052496;28;20052;-79
2021/06/26 05:28:43;;;;;;;3.03;2.10;;;20.40;99.90;;;;;;5053694;28;20147;-79
2021/06/26 05:31:09;;;;;;;5.03;3.03;;;20.30;99.90;;;;;;5052372;28;20025;-78
2021/06/26 05:33:34;;;;;;;9.57;2.95;;;20.40;99.90;;;;;;5052486;28;20411;-79
2021/06/26 05:36:00;;;;;;;3.35;1.45;;;20.50;99.90;;;;;;5052336;28;20519;-78
2021/06/26 05:38:26;;;;;;;2.25;1.67;;;20.40;99.90;;;;;;5051122;28;20116;-78
2021/06/26 05:40:51;;;;;;;3.05;1.30;;;20.60;99.90;;;;;;5051189;28;20025;-78
2021/06/26 05:43:17;;;;;;;5.10;1.25;;;21.10;99.90;;;;;;5052672;28;20063;-79
2021/06/26 05:45:43;;;;;;;3.33;2.30;;;21.40;99.90;;;;;;5052583;28;20437;-78
2021/06/26 05:48:09;;;;;;;3.88;1.30;;;21.40;99.90;;;;;;5055122;28;20064;-79
2021/06/26 05:50:35;;;;;;;2.25;1.20;;;21.30;99.90;;;;;;5055082;28;20112;-80
2021/06/26 05:53:01;;;;;;;2.40;1.35;;;21.40;99.90;;;;;;5054779;28;20052;-79
2021/06/26 05:55:28;;;;;;;2.60;1.05;;;21.50;99.90;;;;;;5056203;28;20017;-78
2021/06/26 05:57:54;;;;;;;4.10;1.40;;;21.70;99.90;;;;;;5056474;28;20028;-78
2021/06/26 06:00:22;;;;;;;4.35;2.17;;;21.80;99.90;;;;;;5054590;28;20098;-78
2021/06/26 06:02:48;;;;;;;2.22;0.80;;;21.80;99.90;;;;;;5056044;28;20408;-78
2021/06/26 06:05:15;;;;;;;7.90;1.50;;;21.80;99.90;;;;;;5054400;28;20040;-80
2021/06/26 06:07:45;;;;;;;4.15;1.35;;;21.90;99.90;;;;;;5055698;28;20044;-78
2021/06/26 06:10:14;;;;;;;3.97;0.77;;;22.40;99.90;;;;;;5054376;28;20021;-77
2021/06/26 06:12:40;;;;;;;1.83;1.10;;;22.40;99.90;;;;;;5054722;28;20059;-78
2021/06/26 06:15:08;;;;;;;1.30;0.90;;;22.50;99.20;;;;;;5055877;28;20056;-79
2021/06/26 06:17:34;;;;;;;2.25;0.70;;;22.60;98.90;;;;;;5054330;28;20029;-82
2021/06/26 06:20:03;;;;;;;3.30;0.88;;;22.80;97.30;;;;;;5055621;28;20036;-82
2021/06/26 06:22:29;;;;;;;1.52;0.50;;;22.80;97.60;;;;;;5054763;28;20031;-81
2021/06/26 06:24:55;;;;;;;2.90;0.50;;;22.80;97.10;;;;;;5055399;28;20096;-78
2021/06/26 06:27:21;;;;;;;2.55;0.55;;;22.80;96.40;;;;;;5053255;28;20028;-75
2021/06/26 06:29:46;;;;;;;2.05;0.60;;;22.80;94.30;;;;;;5053399;28;20024;-79
2021/06/26 06:32:12;;;;;;;1.88;0.45;;;22.60;96.20;;;;;;5053322;28;20025;-77
2021/06/26 06:34:38;;;;;;;0.50;0.30;;;22.60;95.70;;;;;;5053597;28;20115;-78
2021/06/26 06:37:03;;;;;;;1.20;0.40;;;22.80;92.90;;;;;;5053481;28;20028;-81
2021/06/26 06:39:29;;;;;;;2.25;0.80;;;22.70;93.60;;;;;;5053476;28;20554;-78
2021/06/26 06:41:55;;;;;;;1.13;0.47;;;22.70;95.60;;;;;;5053273;28;20463;-78
2021/06/26 06:44:22;;;;;;;0.60;0.30;;;22.70;93.80;;;;;;5054590;28;20459;-78
2021/06/26 06:46:48;;;;;;;2.83;0.50;;;22.90;93.50;;;;;;5053305;28;20123;-78
2021/06/26 06:49:13;;;;;;;1.80;0.30;;;22.80;93.50;;;;;;5054577;28;20553;-77
2021/06/26 06:51:39;;;;;;;2.15;0.55;;;22.80;91.60;;;;;;5054395;28;20391;-78
2021/06/26 06:54:05;;;;;;;4.70;0.60;;;22.90;94.10;;;;;;5053170;28;20692;-78
2021/06/26 06:56:31;;;;;;;2.08;0.60;;;23.00;95.10;;;;;;5054107;28;20495;-78
2021/06/26 06:58:56;;;;;;;1.05;0.50;;;22.90;92.60;;;;;;5054017;28;20039;-78
2021/06/26 07:01:23;;;;;;;0.63;0.30;;;23.20;92.80;;;;;;5053908;28;20494;-78
2021/06/26 07:03:49;;;;;;;0.70;0.60;;;23.30;93.20;;;;;;5052993;28;20032;-80
2021/06/26 07:06:14;;;;;;;1.90;0.30;;;23.60;90.70;;;;;;5052687;28;20025;-78
2021/06/26 07:08:40;;;;;;;1.27;0.45;;;23.60;91.10;;;;;;5052599;28;20469;-79
2021/06/26 07:11:06;;;;;;;0.70;0.25;;;23.50;87.60;;;;;;5054193;28;20472;-78
2021/06/26 07:13:31;;;;;;;1.42;0.40;;;23.70;86.30;;;;;;5053964;28;20132;-79
2021/06/26 07:15:57;;;;;;;3.65;0.50;;;23.60;88.10;;;;;;5052797;28;20027;-78
2021/06/26 07:18:22;;;;;;;1.17;0.35;;;23.70;86.90;;;;;;5052697;28;20029;-78
2021/06/26 07:20:48;;;;;;;0.73;0.20;;;23.90;84.80;;;;;;5052483;28;20380;-79
2021/06/26 07:23:14;;;;;;;0.80;0.40;;;24.00;80.40;;;;;;5053874;28;20025;-77
2021/06/26 07:25:40;;;;;;;3.45;0.60;;;24.10;82.50;;;;;;5053675;28;20028;-78
2021/06/26 07:28:05;;;;;;;0.55;0.40;;;24.10;82.30;;;;;;5052342;28;20115;-79
2021/06/26 07:30:32;;;;;;;0.75;0.38;;;24.30;83.10;;;;;;5053468;28;20062;-78
2021/06/26 07:32:57;;;;;;;0.47;0.30;;;24.40;82.80;;;;;;5053534;28;20059;-78
2021/06/26 07:35:23;;;;;;;0.38;0.30;;;24.40;77.10;;;;;;5052374;28;20029;-78
2021/06/26 07:37:49;;;;;;;0.80;0.30;;;24.30;80.00;;;;;;5052137;28;20021;-78
2021/06/26 07:40:15;;;;;;;0.60;0.30;;;24.40;79.50;;;;;;5052043;28;20074;-78
2021/06/26 07:42:41;;;;;;;0.35;0.25;;;24.50;81.30;;;;;;5052263;28;20021;-78
2021/06/26 07:45:07;;;;;;;2.05;0.22;;;24.60;73.70;;;;;;5052092;28;20022;-80
2021/06/26 07:47:34;;;;;;;0.73;0.30;;;24.50;75.90;;;;;;5053199;28;20484;-79
2021/06/26 07:50:00;;;;;;;0.55;0.20;;;24.50;73.10;;;;;;5052210;28;20063;-79
2021/06/26 07:52:26;;;;;;;2.92;0.32;;;24.50;76.40;;;;;;5053203;28;20083;-79
2021/06/26 07:54:52;;;;;;;0.82;0.20;;;24.60;73.20;;;;;;5051981;28;20376;-77
2021/06/26 07:57:17;;;;;;;0.70;0.30;;;24.80;76.30;;;;;;5053430;28;20482;-78
2021/06/26 07:59:44;;;;;;;3.00;0.30;;;24.80;72.60;;;;;;5051844;28;20465;-79
2021/06/26 08:02:09;;;;;;;0.88;0.22;;;24.90;76.90;;;;;;5051855;28;20585;-78
2021/06/26 08:04:35;;;;;;;2.13;0.40;;;25.00;72.50;;;;;;5052930;28;20029;-79
2021/06/26 08:07:00;;;;;;;2.63;0.30;;;25.20;74.90;;;;;;5051554;28;20056;-79
2021/06/26 08:09:26;;;;;;;3.55;0.30;;;25.20;76.90;;;;;;5052255;28;20068;-79
2021/06/26 08:11:52;;;;;;;0.50;0.40;;;25.00;73.00;;;;;;5051275;28;20025;-80
2021/06/26 08:14:17;;;;;;;1.60;0.22;;;25.20;76.70;;;;;;5052529;28;20049;-79
2021/06/26 08:16:43;;;;;;;0.60;0.40;;;25.20;74.00;;;;;;5051367;28;20572;-76
2021/06/26 08:19:09;;;;;;;4.38;0.50;;;25.40;72.90;;;;;;5050927;28;20025;-79
2021/06/26 08:21:34;;;;;;;2.08;0.20;;;25.70;78.40;;;;;;5053148;28;20039;-79
2021/06/26 08:24:00;;;;;;;2.50;0.50;;;26.00;74.30;;;;;;5052026;28;20025;-77
2021/06/26 08:26:26;;;;;;;0.47;0.28;;;26.00;74.10;;;;;;5053015;28;20088;-78
2021/06/26 08:28:51;;;;;;;0.50;0.20;;;26.00;74.50;;;;;;5051518;28;20033;-78
2021/06/26 08:31:17;;;;;;;0.65;0.20;;;26.10;73.50;;;;;;5052802;28;20017;-79
2021/06/26 08:33:43;;;;;;;0.85;0.35;;;26.10;73.20;;;;;;5052732;28;20087;-79
2021/06/26 08:36:08;;;;;;;1.85;0.20;;;25.90;72.00;;;;;;5051557;28;20387;-79
2021/06/26 08:38:35;;;;;;;0.70;0.30;;;25.90;75.30;;;;;;5051310;28;20380;-78
2021/06/26 08:41:01;;;;;;;0.60;0.22;;;26.10;73.20;;;;;;5051035;28;20036;-78
2021/06/26 08:43:27;;;;;;;0.73;0.30;;;26.10;71.90;;;;;;5051034;28;20021;-78
2021/06/26 08:45:54;;;;;;;2.38;0.52;;;26.30;74.70;;;;;;5052533;28;20361;-78
2021/06/26 08:48:20;;;;;;;5.30;0.60;;;26.50;75.50;;;;;;5051129;28;20099;-79
2021/06/26 08:50:46;;;;;;;1.95;0.20;;;26.50;73.50;;;;;;5051176;28;20082;-78
2021/06/26 08:53:12;;;;;;;5.22;1.20;;;26.70;76.80;;;;;;5052110;28;20024;-79
2021/06/26 08:55:38;;;;;;;0.90;0.40;;;26.70;71.80;;;;;;5050911;28;20036;-78
2021/06/26 08:58:05;;;;;;;2.00;0.30;;;26.80;74.00;;;;;;5052562;28;20029;-79
2021/06/26 09:00:31;;;;;;;0.43;0.32;;;26.80;72.70;;;;;;5050751;28;20068;-79
2021/06/26 09:03:20;;;;;;;2.38;0.47;;;26.60;68.40;;;;;;5051720;28;20479;-77
2021/06/26 09:05:47;;;;;;;1.92;0.45;;;26.60;73.30;;;;;;5052525;28;20029;-77
2021/06/26 09:08:31;;;;;;;0.50;0.30;;;26.60;71.80;;;;;;5051972;28;20048;-76
2021/06/26 09:10:57;;;;;;;2.13;0.52;;;26.60;71.90;;;;;;5052381;28;20022;-75
2021/06/26 09:13:25;;;;;;;0.43;0.40;;;26.40;68.70;;;;;;5052068;28;20163;-76
2021/06/26 09:16:13;;;;;;;1.20;0.40;;;26.60;72.50;;;;;;5052456;28;20094;-76
2021/06/26 09:18:40;;;;;;;2.10;0.57;;;26.80;70.20;;;;;;5052006;28;20057;-77
2021/06/26 09:21:18;;;;;;;7.88;1.40;;;26.90;71.10;;;;;;5054711;28;20079;-77
2021/06/26 09:23:43;;;;;;;2.15;0.47;;;26.70;70.80;;;;;;5055991;28;20021;-77
2021/06/26 09:26:11;;;;;;;0.60;0.47;;;26.90;72.00;;;;;;5056297;28;20484;-77
2021/06/26 09:28:38;;;;;;;1.85;0.40;;;27.00;69.70;;;;;;5056269;28;20087;-78
2021/06/26 09:31:04;;;;;;;0.80;0.50;;;27.00;66.70;;;;;;5056344;28;20052;-77
2021/06/26 09:33:30;;;;;;;1.10;0.35;;;27.20;70.70;;;;;;5056510;28;20031;-77
2021/06/26 09:36:08;;;;;;;4.63;0.93;;;27.30;69.70;;;;;;5056104;28;20062;-79
2021/06/26 09:38:36;;;;;;;7.53;3.28;;;27.50;70.10;;;;;;5056645;28;20020;-78
2021/06/26 09:41:13;;;;;;;6.88;3.42;;;27.80;70.30;;;;;;5055995;28;20021;-77
2021/06/26 09:43:39;;;;;;;2.30;0.82;;;27.70;68.30;;;;;;5056213;28;20032;-77
2021/06/26 09:46:10;;;;;;;1.60;0.80;;;27.80;67.90;;;;;;5056084;28;20021;-80
2021/06/26 09:48:50;;;;;;;2.67;0.50;;;27.80;65.20;;;;;;5056662;28;20083;-77
2021/06/26 09:51:36;;;;;;;2.67;1.30;;;27.60;65.30;;;;;;5054968;28;20028;-81
2021/06/26 09:54:07;;;;;;;0.85;0.50;;;27.80;67.30;;;;;;5054254;28;20472;-81
2021/06/26 09:56:47;;;;;;;2.20;0.40;;;28.00;67.80;;;;;;5055809;28;20127;-80
2021/06/26 09:59:15;;;;;;;1.60;0.30;;;27.90;66.50;;;;;;5055545;28;20017;-79
2021/06/26 10:01:43;;;;;;;2.38;0.60;;;28.20;65.30;;;;;;5055191;28;20062;-78
2021/06/26 10:04:16;;;;;;;2.65;0.32;;;28.10;63.20;;;;;;5055512;28;20154;-78
2021/06/26 10:06:42;;;;;;;0.20;0.10;;;28.20;63.70;;;;;;5054148;28;20116;-79
2021/06/26 10:09:08;;;;;;;0.75;0.40;;;28.30;62.10;;;;;;5054173;28;20488;-80
2021/06/26 10:11:36;;;;;;;0.80;0.30;;;28.20;61.40;;;;;;5053998;28;20032;-79
2021/06/26 10:14:04;;;;;;;0.88;0.32;;;28.10;59.80;;;;;;5055341;28;20045;-79
2021/06/26 10:16:31;;;;;;;0.43;0.20;;;28.40;62.40;;;;;;5053634;28;20110;-79
2021/06/26 10:19:03;;;;;;;0.95;0.30;;;28.40;63.50;;;;;;5055549;28;20365;-79
2021/06/26 10:21:30;;;;;;;1.42;0.30;;;28.50;63.60;;;;;;5055157;28;20025;-78
2021/06/26 10:23:58;;;;;;;1.45;0.20;;;28.60;62.60;;;;;;5055258;28;20103;-78
2021/06/26 10:26:25;;;;;;;0.98;0.30;;;28.60;60.70;;;;;;5053836;28;20029;-79
2021/06/26 10:28:54;;;;;;;0.50;0.30;;;28.60;61.70;;;;;;5055292;28;20039;-77
2021/06/26 10:31:40;;;;;;;1.77;0.30;;;28.50;60.10;;;;;;5054888;28;20025;-81
2021/06/26 10:34:26;;;;;;;1.63;0.28;;;28.50;60.00;;;;;;5055016;28;20074;-80
2021/06/26 10:36:54;;;;;;;0.40;0.30;;;28.50;57.50;;;;;;5053407;28;20033;-79
2021/06/26 10:39:28;;;;;;;0.98;0.30;;;28.30;60.40;;;;;;5054551;28;20018;-78
2021/06/26 10:42:06;;;;;;;0.90;0.38;;;28.10;60.60;;;;;;5054503;28;20098;-79
2021/06/26 10:44:45;;;;;;;0.57;0.30;;;28.20;61.10;;;;;;5053496;28;20454;-81
2021/06/26 10:47:12;;;;;;;0.38;0.20;;;28.30;58.90;;;;;;5054738;28;20025;-80
2021/06/26 10:49:38;;;;;;;0.50;0.40;;;28.50;59.50;;;;;;5054709;28;20114;-77
2021/06/26 10:52:07;;;;;;;0.47;0.22;;;28.70;61.00;;;;;;5052784;28;20476;-77
2021/06/26 10:54:33;;;;;;;1.20;0.30;;;28.80;61.10;;;;;;5053311;28;20752;-77
2021/06/26 10:57:04;;;;;;;0.82;0.40;;;28.90;62.70;;;;;;5054626;28;20100;-79
2021/06/26 10:59:30;;;;;;;2.17;0.45;;;29.00;58.60;;;;;;5054448;28;20110;-79
2021/06/26 11:02:03;;;;;;;0.45;0.30;;;29.10;59.60;;;;;;5054740;28;20052;-78
2021/06/26 11:04:29;;;;;;;0.30;0.20;;;29.00;58.30;;;;;;5053081;28;20035;-79
2021/06/26 11:07:10;;;;;;;0.35;0.30;;;28.80;58.60;;;;;;5053100;28;20028;-79
2021/06/26 11:09:41;;;;;;;1.30;0.30;;;28.50;58.40;;;;;;5053081;28;20044;-80
2021/06/26 11:12:12;;;;;;;0.47;0.30;;;28.60;59.20;;;;;;5052756;28;20028;-81
2021/06/26 11:14:52;;;;;;;1.15;0.30;;;28.50;56.50;;;;;;5052864;28;20052;-81
2021/06/26 11:17:21;;;;;;;2.75;0.30;;;28.50;60.30;;;;;;5054248;28;20036;-79
2021/06/26 11:19:47;;;;;;;1.05;0.25;;;28.60;60.70;;;;;;5053894;28;20032;-77
2021/06/26 11:22:14;;;;;;;1.17;0.30;;;28.70;61.10;;;;;;5053735;28;20029;-79
2021/06/26 11:24:43;;;;;;;0.70;0.22;;;28.80;57.40;;;;;;5052540;28;20037;-76
2021/06/26 11:27:13;;;;;;;1.08;0.40;;;28.60;58.30;;;;;;5052924;28;20031;-81
2021/06/26 11:29:41;;;;;;;1.40;0.20;;;28.50;59.50;;;;;;5053946;28;20037;-78
2021/06/26 11:32:27;;;;;;;0.60;0.30;;;28.50;57.70;;;;;;5052640;28;20025;-79
2021/06/26 11:35:00;;;;;;;0.35;0.20;;;28.50;58.50;;;;;;5053655;28;20052;-79
2021/06/26 11:37:38;;;;;;;1.75;0.30;;;28.50;57.90;;;;;;5053587;28;20030;-81
2021/06/26 11:40:25;;;;;;;1.33;0.40;;;28.20;57.50;;;;;;5052369;28;20078;-79
2021/06/26 11:43:05;;;;;;;0.60;0.40;;;28.00;57.90;;;;;;5051919;28;20075;-79
2021/06/26 11:45:41;;;;;;;0.70;0.30;;;28.10;61.20;;;;;;5053006;28;20476;-79
2021/06/26 11:48:11;;;;;;;1.02;0.40;;;28.30;58.50;;;;;;5052227;28;20033;-79
2021/06/26 11:50:39;;;;;;;2.95;0.50;;;28.40;60.60;;;;;;5053374;28;20025;-78
2021/06/26 11:53:11;;;;;;;0.32;0.20;;;28.70;61.40;;;;;;5053477;28;20040;-81
2021/06/26 11:55:50;;;;;;;3.03;0.28;;;28.80;59.40;;;;;;5052262;28;20029;-82
2021/06/26 11:58:19;;;;;;;0.68;0.28;;;28.90;59.40;;;;;;5057427;28;20032;-78
2021/06/26 12:00:48;;;;;;;1.38;0.30;;;28.70;58.90;;;;;;5067237;28;20074;-79
2021/06/26 12:03:18;;;;;;;0.45;0.20;;;28.40;57.80;;;;;;5073222;28;20028;-79
2021/06/26 12:05:45;;;;;;;1.05;0.43;;;27.90;57.30;;;;;;5073362;28;20465;-79
2021/06/26 12:08:11;;;;;;;0.50;0.30;;;27.80;59.20;;;;;;5073382;28;20379;-79
2021/06/26 12:10:38;;;;;;;0.30;0.20;;;27.80;58.80;;;;;;5073535;28;20029;-79
2021/06/26 12:13:03;;;;;;;0.60;0.30;;;28.00;59.30;;;;;;5072004;28;20419;-79
2021/06/26 12:15:29;;;;;;;0.93;0.50;;;28.20;62.10;;;;;;5069569;28;20075;-79
2021/06/26 12:18:05;;;;;;;0.77;0.28;;;28.50;60.80;;;;;;5069105;28;20438;-79
2021/06/26 12:20:36;;;;;;;0.40;0.20;;;28.90;58.10;;;;;;5070137;28;20374;-79
2021/06/26 12:23:13;;;;;;;0.52;0.30;;;29.00;57.30;;;;;;5069950;28;20443;-79
2021/06/26 12:25:44;;;;;;;1.05;0.20;;;29.20;58.30;;;;;;5067929;28;20024;-79
2021/06/26 12:28:11;;;;;;;0.52;0.30;;;29.40;58.40;;;;;;5068533;28;20036;-77
2021/06/26 12:30:39;;;;;;;3.03;0.40;;;29.50;57.30;;;;;;5073334;28;20012;-80
2021/06/26 12:33:07;;;;;;;0.73;0.20;;;29.10;55.40;;;;;;5071358;28;20463;-78
2021/06/26 12:35:33;;;;;;;1.13;0.32;;;29.00;54.40;;;;;;5070770;28;20028;-79
2021/06/26 12:37:59;;;;;;;0.70;0.30;;;28.80;54.90;;;;;;5072307;28;20020;-77
2021/06/26 12:40:30;;;;;;;0.85;0.30;;;28.60;57.60;;;;;;5070380;28;20029;-82
2021/06/26 12:43:02;;;;;;;0.80;0.40;;;28.50;58.00;;;;;;5072831;28;20039;-80
2021/06/26 12:45:32;;;;;;;1.88;0.60;;;28.40;60.30;;;;;;5071392;28;20066;-79
2021/06/26 12:48:12;;;;;;;0.68;0.30;;;28.40;56.60;;;;;;5072365;28;20039;-81